Time;durP1;ratioP1;P1;durP2;ratioP2;P2;SDS_P1;SDS_P2;PMS_P1;PMS_P2;Temp;Humidity;BMP_temperature;BMP_pressure;BME280_temperature;BME280_humidity;BME280_pressure;Samples;Min_cycle;Max_cycle;Signal;HPM_P1;HPM_P2
2021/10/31 00:01:28;;;;;;;7.55;2.90;;;9.70;99.90;;;;;;5054573;28;20044;-85
2021/10/31 00:03:55;;;;;;;11.82;3.22;;;9.70;99.90;;;;;;5055452;28;20096;-85
2021/10/31 00:06:21;;;;;;;5.25;3.20;;;9.80;99.90;;;;;;5055347;28;20031;-85
2021/10/31 00:08:47;;;;;;;4.03;2.92;;;9.80;99.90;;;;;;5055317;28;20024;-85
2021/10/31 00:11:14;;;;;;;4.65;3.00;;;9.80;99.90;;;;;;5055280;28;20025;-85
2021/10/31 00:13:40;;;;;;;4.75;3.08;;;9.90;99.90;;;;;;5055194;28;20055;-85
2021/10/31 00:16:06;;;;;;;6.68;3.47;;;9.90;99.90;;;;;;5055297;28;20484;-85
2021/10/31 00:18:32;;;;;;;4.20;2.83;;;9.90;99.90;;;;;;5073173;28;20021;-86
2021/10/31 00:20:57;;;;;;;5.35;3.45;;;9.80;99.90;;;;;;5055275;28;20020;-85
2021/10/31 00:23:24;;;;;;;6.57;3.30;;;9.80;99.90;;;;;;5055530;28;20032;-85
2021/10/31 00:25:50;;;;;;;5.22;3.10;;;9.80;99.90;;;;;;5055523;28;20499;-85
2021/10/31 00:28:16;;;;;;;3.65;2.90;;;9.80;99.90;;;;;;5054936;28;20036;-86
2021/10/31 00:30:42;;;;;;;4.45;3.15;;;9.70;99.90;;;;;;5054981;28;20541;-85
2021/10/31 00:33:08;;;;;;;5.10;3.17;;;9.80;99.90;;;;;;5054998;28;20021;-85
2021/10/31 00:35:34;;;;;;;4.88;3.08;;;9.80;99.90;;;;;;5055218;28;20093;-85
2021/10/31 00:38:00;;;;;;;3.97;2.70;;;9.70;99.90;;;;;;5054973;28;20502;-85
2021/10/31 00:40:26;;;;;;;4.43;3.05;;;9.60;99.90;;;;;;5073310;28;20078;-86
2021/10/31 00:42:51;;;;;;;5.57;2.83;;;9.60;99.90;;;;;;5055343;28;20028;-85
2021/10/31 00:45:17;;;;;;;5.03;3.47;;;9.60;99.90;;;;;;5073431;28;20545;-85
2021/10/31 00:47:43;;;;;;;5.63;2.97;;;9.70;99.90;;;;;;5073240;28;20021;-85
2021/10/31 00:50:09;;;;;;;7.43;4.85;;;9.60;99.90;;;;;;5055115;28;20543;-86
2021/10/31 00:52:36;;;;;;;4.90;3.33;;;9.60;99.90;;;;;;5073138;28;20025;-85
2021/10/31 00:55:02;;;;;;;5.85;3.10;;;9.50;99.90;;;;;;5055126;28;20021;-85
2021/10/31 00:57:28;;;;;;;4.60;2.92;;;9.50;99.90;;;;;;5055099;28;20025;-85
2021/10/31 00:59:54;;;;;;;6.97;3.38;;;9.50;99.90;;;;;;5054953;28;20174;-85
2021/10/31 01:02:19;;;;;;;4.78;2.83;;;9.60;99.90;;;;;;5073064;28;20107;-85
2021/10/31 01:04:53;;;;;;;4.00;3.13;;;9.60;99.90;;;;;;5055176;28;20044;-85
2021/10/31 01:07:35;;;;;;;5.35;3.70;;;9.70;99.90;;;;;;5054853;28;20025;-85
2021/10/31 01:10:24;;;;;;;5.15;3.00;;;9.60;99.90;;;;;;5054822;28;20054;-85
2021/10/31 01:13:08;;;;;;;4.32;2.92;;;9.50;99.90;;;;;;5057702;28;20140;-85
2021/10/31 01:15:55;;;;;;;7.10;3.10;;;9.60;99.90;;;;;;5058739;28;20434;-86
2021/10/31 01:18:36;;;;;;;4.22;2.50;;;9.60;99.90;;;;;;5058841;28;20469;-85
2021/10/31 01:21:04;;;;;;;5.95;3.38;;;9.50;99.90;;;;;;5058626;28;20027;-85
2021/10/31 01:23:56;;;;;;;6.50;3.03;;;9.50;99.90;;;;;;5058616;28;20028;-85
2021/10/31 01:26:46;;;;;;;6.53;3.88;;;9.40;99.90;;;;;;5058468;28;20033;-85
2021/10/31 01:29:36;;;;;;;9.02;3.90;;;9.40;99.90;;;;;;5076396;28;20021;-85
2021/10/31 01:32:39;;;;;;;9.57;4.75;;;9.20;99.90;;;;;;5058285;28;20383;-85
2021/10/31 01:35:52;;;;;;;5.45;3.83;;;9.10;99.90;;;;;;5058671;28;20031;-85
2021/10/31 01:38:43;;;;;;;6.38;3.40;;;9.10;99.90;;;;;;5058656;28;20025;-85
2021/10/31 01:41:35;;;;;;;4.88;3.28;;;9.00;99.90;;;;;;5058286;28;20028;-86
2021/10/31 01:44:02;;;;;;;7.85;3.08;;;9.00;99.90;;;;;;5076307;28;20032;-85
2021/10/31 01:46:34;;;;;;;5.38;3.05;;;9.10;99.90;;;;;;5076268;28;20037;-85
2021/10/31 01:49:27;;;;;;;4.60;2.75;;;9.20;99.90;;;;;;5076037;28;20082;-86
2021/10/31 01:51:57;;;;;;;3.55;2.55;;;9.30;99.90;;;;;;5058047;28;20052;-86
2021/10/31 01:54:38;;;;;;;3.88;2.80;;;9.40;99.90;;;;;;5058214;28;20524;-85
2021/10/31 01:57:07;;;;;;;4.30;2.63;;;9.40;99.90;;;;;;5057897;28;20020;-85
2021/10/31 01:59:47;;;;;;;6.13;2.58;;;9.50;99.90;;;;;;5057607;28;20107;-85
2021/10/31 02:02:16;;;;;;;4.47;2.40;;;9.40;99.90;;;;;;5057869;28;20093;-85
2021/10/31 02:04:46;;;;;;;3.70;2.95;;;9.30;99.90;;;;;;5057638;28;20480;-85
2021/10/31 02:07:13;;;;;;;4.72;2.53;;;9.30;99.90;;;;;;5057811;28;20480;-85
2021/10/31 02:09:40;;;;;;;4.28;2.70;;;9.30;99.90;;;;;;5057876;28;20027;-85
2021/10/31 02:12:14;;;;;;;4.53;2.63;;;9.40;99.90;;;;;;5057599;28;20519;-85
2021/10/31 02:14:40;;;;;;;4.78;2.88;;;9.30;99.90;;;;;;5057730;28;20368;-85
2021/10/31 02:17:07;;;;;;;8.45;3.13;;;9.40;99.90;;;;;;5075575;28;20491;-85
2021/10/31 02:19:41;;;;;;;4.03;2.85;;;9.10;99.90;;;;;;5057606;28;20047;-85
2021/10/31 02:22:10;;;;;;;6.15;3.03;;;9.00;99.90;;;;;;5075884;28;20082;-85
2021/10/31 02:24:37;;;;;;;4.03;2.65;;;9.00;99.90;;;;;;5056616;28;20028;-85
2021/10/31 02:27:14;;;;;;;6.85;2.90;;;9.10;99.90;;;;;;5057406;28;20115;-85
2021/10/31 02:29:53;;;;;;;4.22;2.72;;;9.00;99.90;;;;;;5057524;28;20028;-86
2021/10/31 02:32:22;;;;;;;4.38;2.83;;;9.10;99.90;;;;;;5057360;28;20388;-85
2021/10/31 02:34:48;;;;;;;4.22;2.65;;;9.20;99.90;;;;;;5057169;28;20102;-86
2021/10/31 02:37:14;;;;;;;4.60;2.90;;;9.20;99.90;;;;;;5056994;28;20021;-85
2021/10/31 02:39:41;;;;;;;3.88;2.55;;;9.30;99.90;;;;;;5057054;28;20480;-85
2021/10/31 02:42:07;;;;;;;3.35;2.47;;;9.30;99.90;;;;;;5056876;28;20391;-85
2021/10/31 02:44:33;;;;;;;4.63;2.67;;;9.40;99.90;;;;;;5056799;28;20031;-85
2021/10/31 02:46:59;;;;;;;4.68;2.40;;;9.60;99.90;;;;;;5056861;28;20480;-85
2021/10/31 02:49:28;;;;;;;3.40;2.17;;;9.50;99.90;;;;;;5056906;28;20423;-85
2021/10/31 02:52:10;;;;;;;6.13;2.47;;;9.30;99.90;;;;;;5056889;28;20490;-86
2021/10/31 02:54:59;;;;;;;3.92;2.30;;;9.10;99.90;;;;;;5057319;28;20078;-85
2021/10/31 02:57:56;;;;;;;4.47;2.53;;;9.00;99.90;;;;;;5074731;28;20423;-86
2021/10/31 03:00:26;;;;;;;4.50;2.40;;;9.00;99.90;;;;;;5056481;28;20040;-86
2021/10/31 03:02:52;;;;;;;4.78;2.15;;;9.00;99.90;;;;;;5056525;28;20024;-85
2021/10/31 03:05:18;;;;;;;4.82;1.90;;;8.90;99.90;;;;;;5056389;28;20446;-86
2021/10/31 03:07:44;;;;;;;2.45;1.83;;;8.80;99.90;;;;;;5056323;28;20050;-86
2021/10/31 03:10:15;;;;;;;3.35;2.05;;;8.90;99.90;;;;;;5056333;28;20036;-85
2021/10/31 03:12:41;;;;;;;3.67;2.00;;;8.90;99.90;;;;;;5056239;28;20059;-86
2021/10/31 03:15:08;;;;;;;4.85;2.05;;;8.90;99.90;;;;;;5056192;28;20484;-86
2021/10/31 03:17:33;;;;;;;4.13;2.28;;;8.80;99.90;;;;;;5056214;28;20044;-85
2021/10/31 03:19:59;;;;;;;3.05;2.38;;;8.90;99.90;;;;;;5074411;28;20016;-85
2021/10/31 03:22:25;;;;;;;3.20;2.10;;;8.90;99.90;;;;;;5056258;28;20032;-85
2021/10/31 03:24:50;;;;;;;3.08;2.40;;;8.80;99.90;;;;;;5056209;28;20025;-86
2021/10/31 03:27:16;;;;;;;2.30;2.10;;;8.90;99.90;;;;;;5056088;28;20029;-86
2021/10/31 03:29:42;;;;;;;3.28;2.13;;;8.90;99.90;;;;;;5074200;28;20154;-85
2021/10/31 03:32:08;;;;;;;4.47;2.30;;;8.80;99.90;;;;;;5055870;28;20028;-85
2021/10/31 03:34:33;;;;;;;3.20;2.30;;;8.70;99.90;;;;;;5055832;28;20020;-85
2021/10/31 03:36:59;;;;;;;5.32;2.10;;;8.60;99.90;;;;;;5073779;28;20017;-85
2021/10/31 03:39:25;;;;;;;3.88;2.10;;;8.60;99.90;;;;;;5055917;28;20017;-86
2021/10/31 03:41:51;;;;;;;3.13;2.38;;;8.60;99.90;;;;;;5055680;28;20023;-86
2021/10/31 03:44:19;;;;;;;4.25;2.10;;;8.60;99.90;;;;;;5073819;28;20078;-85
2021/10/31 03:46:45;;;;;;;2.72;2.10;;;8.60;99.90;;;;;;5055686;28;20021;-85
2021/10/31 03:49:13;;;;;;;4.38;2.40;;;8.60;99.90;;;;;;5055730;28;20024;-85
2021/10/31 03:51:39;;;;;;;5.03;2.00;;;8.60;99.90;;;;;;5055600;28;20540;-86
2021/10/31 03:54:05;;;;;;;4.68;2.08;;;8.50;99.90;;;;;;5055628;28;20020;-85
2021/10/31 03:56:31;;;;;;;3.28;2.15;;;8.50;99.90;;;;;;5073353;28;20020;-85
2021/10/31 03:58:56;;;;;;;3.72;2.50;;;8.50;99.90;;;;;;5056366;28;20028;-86
2021/10/31 04:01:22;;;;;;;2.33;1.90;;;8.40;99.90;;;;;;5055352;28;20492;-86
2021/10/31 04:03:48;;;;;;;3.55;1.92;;;8.40;99.90;;;;;;5055458;28;20028;-86
2021/10/31 04:06:15;;;;;;;4.35;2.28;;;8.50;99.90;;;;;;5055576;28;20049;-85
2021/10/31 04:08:40;;;;;;;3.65;2.00;;;8.60;99.90;;;;;;5055322;28;20028;-86
2021/10/31 04:11:07;;;;;;;2.63;1.95;;;8.60;99.90;;;;;;5073333;28;20373;-86
2021/10/31 04:13:34;;;;;;;3.92;2.10;;;8.60;99.90;;;;;;5055282;28;20031;-86
2021/10/31 04:16:00;;;;;;;4.35;2.40;;;8.60;99.90;;;;;;5073319;28;20028;-85
2021/10/31 04:18:26;;;;;;;2.33;2.08;;;8.60;99.90;;;;;;5055262;28;20025;-86
2021/10/31 04:20:51;;;;;;;3.50;2.17;;;8.60;99.90;;;;;;5055248;28;20024;-85
2021/10/31 04:23:17;;;;;;;4.40;2.38;;;8.50;99.90;;;;;;5055241;28;20021;-85
2021/10/31 04:25:43;;;;;;;4.53;2.70;;;8.60;99.90;;;;;;5055126;28;20126;-85
2021/10/31 04:28:09;;;;;;;3.78;2.35;;;8.50;99.90;;;;;;5055161;28;20170;-85
2021/10/31 04:30:34;;;;;;;5.97;2.22;;;8.60;99.90;;;;;;5055216;28;20488;-86
2021/10/31 04:33:00;;;;;;;3.33;2.38;;;8.70;99.90;;;;;;5055125;28;20020;-85
2021/10/31 04:35:26;;;;;;;7.90;2.38;;;8.80;99.90;;;;;;5055212;28;20099;-85
2021/10/31 04:37:56;;;;;;;3.55;2.42;;;8.90;99.90;;;;;;5055480;28;20107;-85
2021/10/31 04:40:22;;;;;;;8.35;2.80;;;8.80;99.90;;;;;;5073138;28;20100;-85
2021/10/31 04:42:48;;;;;;;4.20;2.20;;;8.80;99.90;;;;;;5055014;28;20506;-85
2021/10/31 04:45:14;;;;;;;6.28;2.22;;;8.70;99.90;;;;;;5055517;28;20024;-85
2021/10/31 04:47:40;;;;;;;3.20;2.10;;;8.60;99.90;;;;;;5057898;28;20025;-85
2021/10/31 04:50:06;;;;;;;2.60;2.15;;;8.60;99.90;;;;;;5058953;28;20020;-85
2021/10/31 04:52:32;;;;;;;3.47;2.80;;;8.60;99.90;;;;;;5059004;28;20078;-86
2021/10/31 04:54:58;;;;;;;5.25;2.83;;;8.60;99.90;;;;;;5077285;28;20024;-85
2021/10/31 04:57:24;;;;;;;4.75;2.08;;;8.70;99.90;;;;;;5076820;28;20021;-85
2021/10/31 04:59:50;;;;;;;3.35;1.88;;;8.70;99.90;;;;;;5058756;28;20037;-85
2021/10/31 05:02:16;;;;;;;2.63;2.05;;;8.60;99.90;;;;;;5059803;28;20040;-85
2021/10/31 05:04:42;;;;;;;4.03;2.47;;;8.70;99.90;;;;;;5059687;28;20086;-86
2021/10/31 05:07:08;;;;;;;4.55;2.22;;;8.70;99.90;;;;;;5077371;28;20024;-85
2021/10/31 05:09:34;;;;;;;4.15;2.92;;;8.50;99.90;;;;;;5059101;28;20154;-86
2021/10/31 05:11:59;;;;;;;3.83;2.45;;;8.40;99.90;;;;;;5058582;28;20029;-86
2021/10/31 05:14:25;;;;;;;4.82;3.50;;;8.30;99.90;;;;;;5076547;28;20048;-85
2021/10/31 05:16:51;;;;;;;7.25;3.72;;;8.30;99.90;;;;;;5058543;28;20496;-86
2021/10/31 05:19:17;;;;;;;4.45;3.47;;;8.30;99.90;;;;;;5058468;28;20028;-85
2021/10/31 05:21:43;;;;;;;4.32;3.22;;;8.30;99.90;;;;;;5058490;28;20373;-86
2021/10/31 05:24:08;;;;;;;6.13;3.10;;;8.40;99.90;;;;;;5058382;28;20077;-86
2021/10/31 05:26:34;;;;;;;6.38;3.22;;;8.40;99.90;;;;;;5058425;28;20052;-85
2021/10/31 05:29:00;;;;;;;7.72;2.97;;;8.40;99.90;;;;;;5058652;28;20031;-86
2021/10/31 05:31:26;;;;;;;3.25;2.53;;;8.40;99.90;;;;;;5058290;28;20032;-86
2021/10/31 05:33:52;;;;;;;3.50;2.50;;;8.50;99.90;;;;;;5076157;28;20431;-86
2021/10/31 05:36:18;;;;;;;3.35;2.50;;;8.50;99.90;;;;;;5058199;28;20020;-85
2021/10/31 05:38:45;;;;;;;3.05;2.22;;;8.60;99.90;;;;;;5058178;28;20021;-85
2021/10/31 05:41:10;;;;;;;6.18;2.30;;;8.50;99.90;;;;;;5058138;28;20442;-85
2021/10/31 05:43:36;;;;;;;4.85;2.40;;;8.50;99.90;;;;;;5058036;28;20037;-86
2021/10/31 05:46:02;;;;;;;3.22;2.45;;;8.50;99.90;;;;;;5057924;28;20077;-86
2021/10/31 05:48:27;;;;;;;3.15;2.10;;;8.50;99.90;;;;;;5075960;28;20056;-86
2021/10/31 05:50:55;;;;;;;4.25;2.30;;;8.60;99.90;;;;;;5076066;28;20541;-86
2021/10/31 05:53:22;;;;;;;3.65;2.60;;;8.60;99.90;;;;;;5057992;28;20396;-86
2021/10/31 05:55:47;;;;;;;2.78;2.40;;;8.50;99.90;;;;;;5057822;28;20024;-86
2021/10/31 05:58:13;;;;;;;3.03;2.30;;;8.60;99.90;;;;;;5056521;28;20028;-86
2021/10/31 06:00:39;;;;;;;3.17;2.47;;;8.50;99.90;;;;;;5057734;28;20040;-86
2021/10/31 06:03:05;;;;;;;3.90;2.92;;;8.50;99.90;;;;;;5057687;28;20090;-87
2021/10/31 06:05:31;;;;;;;3.63;2.40;;;8.50;99.90;;;;;;5057769;28;20492;-86
2021/10/31 06:07:57;;;;;;;5.88;3.22;;;8.30;99.90;;;;;;5057667;28;20109;-86
2021/10/31 06:10:23;;;;;;;4.60;3.20;;;8.30;99.90;;;;;;5057587;28;20025;-86
2021/10/31 06:12:49;;;;;;;5.70;3.80;;;8.60;99.90;;;;;;5057495;28;20021;-85
2021/10/31 06:15:17;;;;;;;4.60;3.10;;;8.60;99.90;;;;;;5058098;28;20024;-86
2021/10/31 06:17:43;;;;;;;4.10;2.60;;;8.50;99.90;;;;;;5057439;28;20020;-86
2021/10/31 06:20:10;;;;;;;4.10;3.40;;;8.50;99.90;;;;;;5075343;28;20074;-86
2021/10/31 06:22:37;;;;;;;7.53;3.97;;;8.40;99.90;;;;;;5057367;28;20120;-86
2021/10/31 06:25:03;;;;;;;4.78;3.10;;;8.50;99.90;;;;;;5057383;28;20034;-86
2021/10/31 06:27:29;;;;;;;5.35;3.42;;;8.60;99.90;;;;;;5057368;28;20051;-86
2021/10/31 06:29:55;;;;;;;4.80;2.65;;;8.60;99.90;;;;;;5057226;28;20492;-86
2021/10/31 06:32:21;;;;;;;5.32;3.72;;;8.60;99.90;;;;;;5075080;28;20025;-86
2021/10/31 06:34:46;;;;;;;6.05;3.50;;;8.60;99.90;;;;;;5057082;28;20124;-85
2021/10/31 06:37:12;;;;;;;7.88;3.75;;;8.70;99.90;;;;;;5057206;28;20365;-86
2021/10/31 06:39:38;;;;;;;5.10;3.78;;;8.90;99.90;;;;;;5057054;28;20016;-86
2021/10/31 06:42:04;;;;;;;9.13;3.50;;;8.80;99.90;;;;;;5056905;28;20549;-85
2021/10/31 06:44:29;;;;;;;4.03;2.78;;;8.80;99.90;;;;;;5056888;28;20027;-86
2021/10/31 06:46:55;;;;;;;7.13;4.28;;;8.80;99.90;;;;;;5056832;28;20020;-86
2021/10/31 06:49:21;;;;;;;7.22;5.20;;;9.00;99.90;;;;;;5056870;28;20102;-86
2021/10/31 06:51:47;;;;;;;7.60;4.05;;;9.00;99.90;;;;;;5056885;28;20488;-86
2021/10/31 06:54:15;;;;;;;8.07;4.22;;;9.00;99.90;;;;;;5074844;28;20028;-86
2021/10/31 06:56:41;;;;;;;6.38;4.03;;;9.20;99.90;;;;;;5056616;28;20024;-86
2021/10/31 06:59:07;;;;;;;9.52;5.60;;;9.20;99.90;;;;;;5056637;28;20047;-86
2021/10/31 07:01:32;;;;;;;8.07;5.20;;;9.40;99.90;;;;;;5056419;28;20488;-86
2021/10/31 07:03:58;;;;;;;7.07;4.30;;;9.40;99.90;;;;;;5056517;28;20031;-86
2021/10/31 07:06:24;;;;;;;7.65;4.55;;;9.50;99.90;;;;;;5056576;28;20095;-86
2021/10/31 07:08:50;;;;;;;9.93;3.58;;;9.70;99.90;;;;;;5056520;28;20396;-86
2021/10/31 07:11:16;;;;;;;5.43;4.13;;;9.90;99.90;;;;;;5059876;28;20033;-86
2021/10/31 07:13:42;;;;;;;6.15;3.67;;;10.10;99.90;;;;;;5063080;28;20032;-86
2021/10/31 07:16:08;;;;;;;6.97;3.88;;;10.40;99.90;;;;;;5058035;28;20021;-86
2021/10/31 07:18:33;;;;;;;4.70;3.67;;;10.50;99.90;;;;;;5057109;28;20031;-85
2021/10/31 07:21:00;;;;;;;6.43;4.38;;;10.40;99.90;;;;;;5056357;28;20021;-85
2021/10/31 07:23:25;;;;;;;8.73;5.03;;;10.40;99.90;;;;;;5056336;28;20024;-85
2021/10/31 07:25:52;;;;;;;7.50;4.93;;;10.50;99.90;;;;;;5074732;28;20031;-85
2021/10/31 07:28:18;;;;;;;8.10;5.43;;;10.50;99.90;;;;;;5056570;28;20099;-85
2021/10/31 07:30:44;;;;;;;8.90;5.43;;;10.50;99.90;;;;;;5056706;28;20036;-85
2021/10/31 07:33:09;;;;;;;11.55;6.18;;;10.70;99.90;;;;;;5074446;28;20032;-86
2021/10/31 07:35:35;;;;;;;15.13;7.47;;;10.70;99.90;;;;;;5074553;28;20096;-86
2021/10/31 07:38:02;;;;;;;11.20;6.18;;;10.70;99.90;;;;;;5074535;28;20388;-86
2021/10/31 07:40:28;;;;;;;8.15;4.65;;;10.90;99.90;;;;;;5056246;28;20385;-85
2021/10/31 07:42:54;;;;;;;7.82;5.70;;;11.10;99.90;;;;;;5056106;28;20028;-86
2021/10/31 07:45:20;;;;;;;7.97;5.55;;;11.50;99.90;;;;;;5056001;28;20028;-85
2021/10/31 07:47:45;;;;;;;9.52;5.55;;;11.60;99.90;;;;;;5056157;28;20480;-85
2021/10/31 07:50:11;;;;;;;8.63;5.60;;;11.80;99.90;;;;;;5055789;28;20021;-85
2021/10/31 07:52:44;;;;;;;9.15;5.63;;;12.10;99.90;;;;;;5056317;28;20021;-86
2021/10/31 07:55:15;;;;;;;17.85;8.52;;;12.20;99.90;;;;;;5055916;28;20021;-84
2021/10/31 07:57:42;;;;;;;13.95;8.00;;;12.20;99.90;;;;;;5055652;28;20111;-85
2021/10/31 08:00:09;;;;;;;12.52;6.90;;;12.10;99.90;;;;;;5055528;28;20444;-85
2021/10/31 08:02:34;;;;;;;6.80;4.05;;;12.20;99.90;;;;;;5055610;28;20024;-86
2021/10/31 08:05:00;;;;;;;7.57;5.63;;;12.40;99.90;;;;;;5056571;28;20050;-85
2021/10/31 08:07:30;;;;;;;8.52;5.07;;;12.50;99.90;;;;;;5055485;28;20469;-85
2021/10/31 08:09:58;;;;;;;8.48;5.43;;;12.70;99.90;;;;;;5055937;28;20039;-85
2021/10/31 08:12:25;;;;;;;9.10;6.45;;;12.70;99.90;;;;;;5055403;28;20066;-85
2021/10/31 08:14:51;;;;;;;15.90;7.07;;;12.80;99.90;;;;;;5038940;28;20025;-86
2021/10/31 08:17:17;;;;;;;18.27;8.57;;;13.00;99.90;;;;;;5055686;28;20036;-86
2021/10/31 08:19:42;;;;;;;14.60;7.68;;;13.00;99.90;;;;;;5055336;28;20021;-85
2021/10/31 08:22:08;;;;;;;9.25;5.78;;;13.00;99.90;;;;;;5054404;28;20074;-86
2021/10/31 08:24:34;;;;;;;11.45;6.72;;;13.10;99.90;;;;;;5038683;28;20052;-85
2021/10/31 08:27:00;;;;;;;12.88;6.78;;;13.20;99.90;;;;;;5055306;28;20020;-86
2021/10/31 08:29:26;;;;;;;10.57;6.53;;;13.30;99.90;;;;;;5073428;28;20055;-86
2021/10/31 08:31:55;;;;;;;18.80;9.32;;;13.50;99.90;;;;;;5055556;28;20055;-85
2021/10/31 08:34:22;;;;;;;18.75;8.25;;;13.60;99.90;;;;;;5055108;28;20476;-86
2021/10/31 08:36:49;;;;;;;21.15;10.40;;;13.60;99.90;;;;;;5055204;28;20495;-86
2021/10/31 08:39:15;;;;;;;20.77;9.95;;;13.70;99.90;;;;;;5055183;28;20016;-86
2021/10/31 08:41:41;;;;;;;10.60;7.10;;;13.70;99.90;;;;;;5055165;28;20438;-86
2021/10/31 08:44:07;;;;;;;10.63;7.13;;;13.70;99.90;;;;;;5055612;28;20029;-86
2021/10/31 08:46:34;;;;;;;18.27;12.45;;;13.80;99.90;;;;;;5055542;28;20027;-86
2021/10/31 08:49:01;;;;;;;11.68;7.93;;;14.00;99.90;;;;;;5055450;28;20107;-86
2021/10/31 08:51:27;;;;;;;13.32;6.95;;;14.20;99.90;;;;;;5055287;28;20439;-86
2021/10/31 08:53:54;;;;;;;10.13;6.68;;;14.50;99.90;;;;;;5055151;28;20423;-86
2021/10/31 08:56:28;;;;;;;10.25;5.45;;;14.60;99.90;;;;;;5055087;28;20025;-86
2021/10/31 08:58:54;;;;;;;7.10;4.65;;;14.70;99.90;;;;;;5055571;28;20025;-86
2021/10/31 09:01:20;;;;;;;6.65;3.85;;;14.60;99.90;;;;;;5055608;28;20041;-86
2021/10/31 09:03:47;;;;;;;4.25;3.25;;;14.50;99.90;;;;;;5055134;28;20416;-87
2021/10/31 09:06:14;;;;;;;8.82;3.95;;;14.60;99.90;;;;;;5056688;28;20035;-85
2021/10/31 09:08:43;;;;;;;6.95;3.60;;;14.90;99.90;;;;;;5055169;28;20029;-86
2021/10/31 09:11:10;;;;;;;5.18;3.22;;;15.10;99.90;;;;;;5055958;28;20368;-86
2021/10/31 09:13:36;;;;;;;5.45;3.17;;;15.20;99.90;;;;;;5054974;28;20476;-86
2021/10/31 09:16:02;;;;;;;4.45;3.10;;;15.20;99.90;;;;;;5054944;28;20024;-85
2021/10/31 09:18:28;;;;;;;7.60;4.90;;;15.20;99.90;;;;;;5055192;28;20069;-86
2021/10/31 09:20:54;;;;;;;4.25;3.15;;;15.40;99.90;;;;;;5062441;28;20029;-87
2021/10/31 09:23:20;;;;;;;7.30;2.90;;;15.80;99.90;;;;;;5071643;28;20029;-86
2021/10/31 09:25:46;;;;;;;3.22;2.40;;;15.80;99.90;;;;;;5064808;28;20123;-87
2021/10/31 09:28:12;;;;;;;3.55;2.42;;;16.00;99.90;;;;;;5056622;28;20487;-86
2021/10/31 09:30:40;;;;;;;4.13;2.60;;;15.90;99.90;;;;;;5055747;28;20032;-87
2021/10/31 09:33:11;;;;;;;4.05;2.38;;;16.20;99.90;;;;;;5057326;28;20104;-87
2021/10/31 09:35:58;;;;;;;3.47;2.20;;;16.30;99.90;;;;;;5059111;28;20345;-87
2021/10/31 09:38:26;;;;;;;3.75;1.83;;;16.40;99.90;;;;;;5076608;28;20120;-82
2021/10/31 09:40:54;;;;;;;5.13;2.15;;;16.70;99.90;;;;;;5058148;28;20020;-81
2021/10/31 09:43:22;;;;;;;3.78;2.40;;;16.80;99.90;;;;;;5058296;28;20028;-82
2021/10/31 09:45:48;;;;;;;2.97;1.95;;;16.90;99.90;;;;;;5058021;28;20029;-85
2021/10/31 09:48:16;;;;;;;3.78;1.80;;;17.10;99.90;;;;;;5058582;28;20111;-87
2021/10/31 09:50:47;;;;;;;3.65;2.20;;;17.20;99.90;;;;;;5057885;28;20025;-86
2021/10/31 09:53:16;;;;;;;2.65;1.75;;;17.30;99.90;;;;;;5058508;28;20025;-86
2021/10/31 09:55:43;;;;;;;2.70;2.05;;;17.50;99.90;;;;;;5057760;28;20112;-86
2021/10/31 09:58:18;;;;;;;4.82;2.00;;;17.50;99.90;;;;;;5057721;28;20025;-86
2021/10/31 10:00:47;;;;;;;2.83;1.65;;;17.80;99.90;;;;;;5057656;28;20051;-87
2021/10/31 10:03:35;;;;;;;2.65;1.83;;;17.90;99.90;;;;;;5057958;28;20365;-86
2021/10/31 10:06:25;;;;;;;3.15;2.05;;;18.10;99.90;;;;;;5058941;28;20052;-87
2021/10/31 10:09:04;;;;;;;2.17;1.83;;;17.80;99.90;;;;;;5062884;28;20035;-87
2021/10/31 10:11:34;;;;;;;2.88;1.60;;;18.30;99.90;;;;;;5058930;28;20028;-86
2021/10/31 10:14:11;;;;;;;3.00;1.30;;;18.40;99.90;;;;;;5075556;28;20025;-86
2021/10/31 10:16:42;;;;;;;2.90;2.05;;;18.50;99.90;;;;;;5058428;28;20495;-86
2021/10/31 10:19:23;;;;;;;2.83;1.80;;;18.60;99.90;;;;;;5058006;28;20051;-88
2021/10/31 10:21:54;;;;;;;5.00;2.08;;;18.90;99.90;;;;;;5059018;28;20047;-87
2021/10/31 10:24:23;;;;;;;3.53;2.50;;;19.20;99.90;;;;;;5058116;28;20033;-87
2021/10/31 10:26:49;;;;;;;4.50;2.40;;;19.50;99.90;;;;;;5075315;28;20036;-87
2021/10/31 10:29:18;;;;;;;2.22;1.75;;;19.90;99.90;;;;;;5057595;28;20032;-87
2021/10/31 10:31:53;;;;;;;2.63;1.92;;;20.00;99.90;;;;;;5057524;28;20032;-87
2021/10/31 10:34:42;;;;;;;3.47;1.95;;;20.20;99.90;;;;;;5057671;28;20021;-87
2021/10/31 10:37:16;;;;;;;4.95;2.42;;;20.80;99.90;;;;;;5057405;28;20395;-87
2021/10/31 10:39:45;;;;;;;3.80;2.40;;;21.00;99.90;;;;;;5057641;28;20020;-87
2021/10/31 10:42:20;;;;;;;4.18;2.00;;;21.40;99.90;;;;;;5059229;28;20059;-86
2021/10/31 10:44:45;;;;;;;;;;;21.40;99.90;;;;;;5046402;28;20158;-87
2021/10/31 10:47:19;;;;;;;2.42;1.48;;;21.90;99.90;;;;;;5043898;28;19948;-87
2021/10/31 10:49:45;;;;;;;2.17;1.33;;;21.90;99.90;;;;;;5058929;28;20028;-87
2021/10/31 10:52:24;;;;;;;1.83;1.33;;;22.00;99.90;;;;;;5058639;28;20545;-87
2021/10/31 10:54:51;;;;;;;3.97;1.13;;;21.90;99.90;;;;;;5058621;28;20082;-87
2021/10/31 10:57:18;;;;;;;32.00;19.52;;;21.90;99.90;;;;;;5058113;28;20031;-87
2021/10/31 10:59:49;;;;;;;73.47;42.38;;;22.00;99.90;;;;;;5058077;28;20017;-87
2021/10/31 11:02:19;;;;;;;2.92;1.65;;;22.20;99.90;;;;;;5042715;28;20028;-87
2021/10/31 11:04:50;;;;;;;1.35;0.93;;;22.00;99.90;;;;;;5057698;28;20024;-86
2021/10/31 11:07:16;;;;;;;3.15;0.82;;;22.20;99.90;;;;;;5058134;28;20021;-87
2021/10/31 11:09:48;;;;;;;2.72;1.35;;;21.60;99.90;;;;;;5058331;28;20031;-87
2021/10/31 11:12:36;;;;;;;2.60;1.75;;;21.70;99.90;;;;;;5058036;28;20048;-88
2021/10/31 11:15:27;;;;;;;1.63;0.90;;;22.00;99.90;;;;;;5058160;28;20020;-87
2021/10/31 11:17:55;;;;;;;0.93;0.82;;;22.60;99.90;;;;;;5057776;28;20483;-86
2021/10/31 11:20:24;;;;;;;1.35;1.05;;;23.20;99.90;;;;;;5057417;28;20012;-87
2021/10/31 11:22:54;;;;;;;2.28;0.82;;;23.20;99.90;;;;;;5057160;28;20059;-87
2021/10/31 11:25:22;;;;;;;1.00;0.90;;;23.70;99.90;;;;;;5041663;28;20037;-87
2021/10/31 11:27:53;;;;;;;2.40;1.02;;;23.80;99.90;;;;;;5063105;28;20047;-86
2021/10/31 11:30:21;;;;;;;2.13;0.80;;;24.00;99.90;;;;;;5056004;28;20069;-86
2021/10/31 11:32:48;;;;;;;2.33;1.05;;;24.00;99.90;;;;;;5048246;28;20036;-87
2021/10/31 11:35:18;;;;;;;1.38;0.80;;;23.90;99.90;;;;;;5057983;28;20020;-86
2021/10/31 11:37:55;;;;;;;2.17;0.80;;;23.70;99.90;;;;;;5076176;28;20044;-87
2021/10/31 11:40:42;;;;;;;1.30;0.80;;;23.70;99.90;;;;;;5057384;28;20478;-87
2021/10/31 11:43:14;;;;;;;1.00;0.75;;;23.90;99.90;;;;;;5058840;28;20024;-88
2021/10/31 11:45:43;;;;;;;2.30;0.80;;;24.30;99.90;;;;;;5075273;28;20016;-88
2021/10/31 11:48:21;;;;;;;2.75;0.80;;;24.80;99.90;;;;;;5017043;28;20061;-88
2021/10/31 11:51:16;;;;;;;1.45;0.68;;;25.80;99.40;;;;;;5033154;28;20120;-87
2021/10/31 11:54:03;;;;;;;2.10;0.82;;;26.60;97.80;;;;;;5016385;28;20030;-87
2021/10/31 11:56:29;;;;;;;2.03;0.88;;;26.90;94.60;;;;;;5015078;28;20021;-87
2021/10/31 11:59:00;;;;;;;1.40;0.90;;;27.00;92.10;;;;;;5016214;28;20029;-88
2021/10/31 12:01:47;;;;;;;1.80;0.80;;;27.20;91.50;;;;;;5032893;28;20056;-88
2021/10/31 12:04:33;;;;;;;3.70;0.65;;;26.90;90.50;;;;;;5017470;28;20037;-86
2021/10/31 12:07:07;;;;;;;1.00;0.70;;;26.70;89.60;;;;;;5017134;28;20029;-86
2021/10/31 12:09:33;;;;;;;;;;;25.20;90.00;;;;;;5017951;28;20536;-87
2021/10/31 12:12:04;;;;;;;2.85;0.80;;;25.20;90.20;;;;;;5016293;28;19905;-86
2021/10/31 12:14:47;;;;;;;1.45;0.80;;;25.60;89.30;;;;;;5032998;28;20497;-87
2021/10/31 12:17:16;;;;;;;8.80;4.57;;;25.10;90.60;;;;;;5016529;28;20024;-88
2021/10/31 12:19:47;;;;;;;3.38;2.30;;;25.90;88.90;;;;;;5046543;28;20036;-88
2021/10/31 12:22:19;;;;;;;7.45;5.15;;;25.70;86.90;;;;;;5074330;28;20020;-88
2021/10/31 12:24:51;;;;;;;1.33;1.00;;;25.40;88.10;;;;;;5057293;28;20017;-87
2021/10/31 12:27:24;;;;;;;4.05;2.70;;;25.20;90.10;;;;;;5056897;28;20032;-87
2021/10/31 12:30:11;;;;;;;1.25;0.90;;;25.60;87.60;;;;;;5056403;28;20066;-87
2021/10/31 12:32:43;;;;;;;1.10;0.80;;;26.20;97.20;;;;;;5074208;28;20024;-87
2021/10/31 12:35:40;;;;;;;1.65;0.90;;;26.10;97.00;;;;;;5057267;28;20020;-87
2021/10/31 12:38:33;;;;;;;1.38;0.50;;;26.50;96.10;;;;;;5036674;28;20068;-88
2021/10/31 12:41:05;;;;;;;2.80;0.70;;;26.40;95.10;;;;;;5051687;28;20033;-87
2021/10/31 12:43:40;;;;;;;0.52;0.45;;;26.30;96.50;;;;;;5075761;28;20392;-87
2021/10/31 12:46:26;;;;;;;1.08;0.70;;;26.30;96.60;;;;;;5056032;28;20485;-87
2021/10/31 12:48:58;;;;;;;0.60;0.60;;;25.60;97.20;;;;;;5074365;28;20024;-87
2021/10/31 12:51:58;;;;;;;0.75;0.57;;;25.70;97.70;;;;;;5056170;28;20021;-87
2021/10/31 12:54:24;;;;;;;0.60;0.40;;;25.90;98.10;;;;;;5056058;28;20021;-87
2021/10/31 12:56:52;;;;;;;0.77;0.65;;;26.10;97.80;;;;;;5055885;28;20476;-86
2021/10/31 12:59:18;;;;;;;1.85;0.85;;;25.70;98.80;;;;;;5056318;28;20388;-86
2021/10/31 13:02:02;;;;;;;1.35;0.70;;;25.90;99.90;;;;;;5056239;28;20041;-87
2021/10/31 13:04:27;;;;;;;0.67;0.57;;;25.60;97.80;;;;;;5041305;28;20484;-87
2021/10/31 13:06:57;;;;;;;2.13;0.60;;;24.90;97.50;;;;;;5056287;28;20025;-87